^^
Datos históricos de la estación: Murcia-Puente Tocinos
Diario Informe para Mayo 04, 2021 Unidades:  Ingés    Métrico   Ambas
Diario Semanal Mensual Anual
  Máxima: Mínima: Promedio:
Temperatura: 73 °F 56.5 °F 63.9 °F
Punto de rocio: 55.9 °F 50.7 °F 53.4 °F
Humedad: 90% 45.9% 71%
Velocidad viento: 12.5mph 0mph 4.7mph
Racha viento: 21.3mph - -
Viento- - SSE
Presión: 30.1 in 29.9 in -
Precipitación: 0 in    
 
 
Tabla de datos para Mayo 04, 2021
Hora Temperatura Punto de rocio Presión Viento Velocidad viento Racha viento Humedad Intensidad lluvia(por hora) Nubes
00:04 59.9 °F 55.8 °F 30.1 in NO 3.1 mph 6 mph 86% 0 in
00:09 59.7 °F 55.6 °F 30.1 in North 2.1 mph 4.6 mph 86% 0 in
00:14 59.7 °F 55.6 °F 30.1 in NNE 1.8 mph 5 mph 86.1% 0 in
00:19 59.7 °F 55.8 °F 30.1 in NNE 1.8 mph 5.4 mph 87% 0 in
00:24 59.5 °F 55.4 °F 30.1 in NE 1.8 mph 5.8 mph 86.1% 0 in
00:29 59.4 °F 55.4 °F 30.1 in ENE 2.3 mph 5 mph 86.7% 0 in
00:34 59.5 °F 55.8 °F 30.1 in ONO 2.4 mph 4.6 mph 87% 0 in
00:39 59.5 °F 55.8 °F 30.1 in NO 2.4 mph 5 mph 87% 0 in
00:44 59.5 °F 55.8 °F 30.1 in ONO 2.4 mph 6.2 mph 87.1% 0 in
00:49 59.4 °F 55.8 °F 30.1 in ONO 3 mph 6 mph 88% 0 in
00:54 59.4 °F 55.8 °F 30.1 in ONO 3.1 mph 5 mph 88% 0.02 in
00:59 59.4 °F 55.8 °F 30.1 in Oeste 2.5 mph 5 mph 88% 0.01 in
01:04 59.4 °F 55.8 °F 30.1 in ONO 2.4 mph 5.8 mph 88% 0 in
01:09 59.4 °F 55.9 °F 30.1 in ONO 3 mph 6.9 mph 88.7% 0 in
01:14 59.2 °F 55.9 °F 30.1 in NO 3.1 mph 7 mph 88.8% 0 in
01:19 59.2 °F 55.9 °F 30.1 in NO 4 mph 6.2 mph 89% 0 in
01:24 59 °F 55.8 °F 30.1 in NO 4.3 mph 6 mph 89% 0 in
01:29 59 °F 55.4 °F 30.1 in NNO 2.8 mph 5 mph 88.1% 0 in
01:34 58.8 °F 55.4 °F 30.1 in NO 2.4 mph 5.2 mph 88% 0 in
01:39 58.8 °F 55.2 °F 30.1 in NO 2.1 mph 5 mph 88% 0 in
01:44 58.8 °F 55.2 °F 30.1 in NO 2 mph 5 mph 88% 0 in
01:49 58.8 °F 55.2 °F 30.1 in NO 1.9 mph 4 mph 88% 0 in
01:54 58.8 °F 55.2 °F 30.1 in NNO 1.8 mph 2.4 mph 88% 0 in
01:59 58.8 °F 55.2 °F 30.1 in North 0.3 mph 2 mph 88% 0 in
02:04 59 °F 55 °F 30.1 in Calm   4.6 mph 87% 0 in
02:09 59 °F 55 °F 30.1 in NO 1 mph 5 mph 87% 0 in
02:14 59 °F 55 °F 30.1 in ONO 1.4 mph 5.2 mph 87% 0 in
02:19 59 °F 55 °F 30.1 in ONO 2.6 mph 5.2 mph 87% 0 in
02:24 59 °F 55.2 °F 30.1 in Oeste 2.9 mph 6.2 mph 87% 0 in
02:29 59 °F 55 °F 30.1 in Oeste 3 mph 6 mph 87% 0 in
02:34 59 °F 55 °F 30.1 in Oeste 3.1 mph 6.9 mph 87% 0 in
02:39 58.8 °F 55 °F 30.1 in Oeste 3.7 mph 6.9 mph 87% 0 in
02:44 58.6 °F 54.9 °F 30.1 in Oeste 4 mph 6.9 mph 87% 0 in
02:49 58.6 °F 54.9 °F 30.1 in Oeste 3.7 mph 7 mph 87% 0 in
02:54 58.6 °F 54.9 °F 30.1 in Oeste 3.6 mph 7 mph 87% 0 in
02:59 58.6 °F 54.9 °F 30.1 in Oeste 3.2 mph 5.2 mph 87% 0 in
03:04 58.6 °F 54.9 °F 30.1 in Oeste 3.1 mph 5 mph 87% 0 in
03:09 58.6 °F 54.9 °F 30.1 in OSO 2.9 mph 5 mph 87% 0 in
03:14 58.6 °F 54.9 °F 30.1 in OSO 2.9 mph 5.2 mph 87% 0 in
03:19 58.6 °F 54.9 °F 30.1 in OSO 2.5 mph 5 mph 87% 0 in
03:24 58.6 °F 54.9 °F 30.1 in Oeste 2.4 mph 5 mph 86.9% 0 in
03:29 58.8 °F 54.7 °F 30.1 in OSO 2.1 mph 5 mph 86% 0 in
03:34 58.8 °F 54.7 °F 30.1 in OSO 2 mph 4 mph 86% 0 in
03:39 58.8 °F 54.7 °F 30.1 in OSO 1.6 mph 2 mph 86% 0 in
03:44 58.8 °F 54.7 °F 30.1 in OSO 1.4 mph 2.9 mph 86% 0 in
03:49 58.6 °F 54.5 °F 30.1 in OSO 1.4 mph 3 mph 86% 0 in
03:54 58.6 °F 54.5 °F 30.1 in OSO 1.4 mph 3.6 mph 86% 0 in
03:59 58.6 °F 54.9 °F 30.1 in Sur 1.9 mph 4.6 mph 86.9% 0 in
04:04 58.6 °F 54.9 °F 30.1 in SE 2 mph 6.9 mph 87% 0 in
04:09 58.5 °F 54.7 °F 30.1 in SSE 3.3 mph 7 mph 87% 0 in
04:14 58.3 °F 54.7 °F 30.1 in SSE 3.6 mph 7 mph 87.9% 0 in
04:19 58.1 °F 54.5 °F 30.1 in SSE 3.9 mph 6.9 mph 88% 0 in
04:24 57.9 °F 54.7 °F 30.1 in SSE 4 mph 7 mph 88.8% 0 in
04:29 57.7 °F 54.5 °F 30.1 in SSE 4.2 mph 7.4 mph 89% 0 in
04:34 57.6 °F 54.3 °F 30 in Sur 4.3 mph 7 mph 89% 0 in
04:39 57.6 °F 54.5 °F 30 in SSO 4.3 mph 7 mph 89.9% 0 in
04:44 57.6 °F 54.5 °F 30 in Sur 4.3 mph 7 mph 90% 0 in
04:49 57.4 °F 54.5 °F 30 in SSO 4 mph 6.9 mph 90% 0 in
04:54 57.4 °F 54.5 °F 30 in SSO 4 mph 7 mph 90% 0 in
04:59 57.6 °F 54.5 °F 30 in SO 4.2 mph 7 mph 89.9% 0 in
05:04 57.6 °F 54.3 °F 30 in SO 4.3 mph 6 mph 89% 0 in
05:09 57.6 °F 54.3 °F 30 in SO 3.7 mph 6 mph 89% 0 in
05:14 57.6 °F 54.3 °F 30 in SO 3.6 mph 6 mph 89% 0 in
05:19 57.6 °F 54.3 °F 30 in SO 3.6 mph 6 mph 89% 0 in
05:24 57.6 °F 54.1 °F 30 in SO 3.6 mph 5.9 mph 88.4% 0 in
05:29 57.4 °F 54 °F 30.1 in SO 3.2 mph 6.9 mph 88% 0 in
05:34 57.4 °F 53.8 °F 30.1 in SO 3.1 mph 7 mph 88% 0 in
05:39 57.2 °F 53.8 °F 30.1 in SSO 3.8 mph 7 mph 88% 0 in
05:44 57 °F 53.6 °F 30.1 in SSO 4 mph 6 mph 88% 0 in
05:49 57 °F 53.4 °F 30 in Sur 3.2 mph 5.2 mph 88% 0 in
05:54 57 °F 53.4 °F 30 in Sur 2.9 mph 5 mph 88% 0 in
05:59 57 °F 53.4 °F 30 in Sur 2.9 mph 5 mph 88% 0 in
06:04 57 °F 53.4 °F 30 in Sur 2.9 mph 5 mph 88% 0 in
06:09 57 °F 53.4 °F 30 in SSE 2.9 mph 5.8 mph 87.6% 0 in
06:14 57 °F 53.2 °F 30 in SSE 2.9 mph 6 mph 87% 0 in
06:19 56.8 °F 53.1 °F 30 in SSE 3.7 mph 6 mph 87% 0 in
06:24 56.8 °F 53.1 °F 30 in SSE 4 mph 5.9 mph 87% 0 in
06:29 56.8 °F 52.9 °F 30 in SSE 4 mph 6.9 mph 87% 0 in
06:34 56.7 °F 52.9 °F 30 in SE 4 mph 7 mph 87.3% 0 in
06:39 56.7 °F 53.1 °F 30 in SSE 4 mph 6.2 mph 87.8% 0 in
06:44 56.5 °F 52.7 °F 30 in SSE 4 mph 7.4 mph 87.3% 0 in
06:49 56.5 °F 53.1 °F 30 in Sur 4.5 mph 7 mph 88% 0 in
06:54 56.5 °F 53.1 °F 30 in Sur 4.7 mph 6.2 mph 88% 0 in
06:59 56.5 °F 53.1 °F 30 in Sur 4.2 mph 6.2 mph 88% 0 in
07:04 56.7 °F 53.1 °F 30 in Sur 4 mph 6.9 mph 88% 0 in
07:09 56.7 °F 53.1 °F 30 in Sur 4.2 mph 7 mph 88% 0 in
07:14 56.8 °F 53.2 °F 30 in SSO 4.3 mph 7 mph 88% 0 in
07:19 56.8 °F 53.2 °F 30 in SSO 4.1 mph 7 mph 88% 0 in
07:24 57 °F 53.4 °F 30 in SSO 4 mph 6.2 mph 87.9% 0 in
07:29 57 °F 53.2 °F 30.1 in SSO 3.7 mph 6 mph 87.1% 0 in
07:34 57 °F 53.2 °F 30.1 in SSO 3.6 mph 6 mph 87% 0 in
07:39 57.2 °F 53.1 °F 30.1 in SSO 3.6 mph 9.2 mph 86.4% 0 in
07:44 57 °F 52.9 °F 30.1 in SSO 3.6 mph 9.2 mph 86% 0 in
07:49 57 °F 52.9 °F 30.1 in SSO 4.4 mph 8.1 mph 86% 0 in
07:54 57 °F 52.7 °F 30.1 in Sur 4.7 mph 7 mph 85.3% 0 in
07:59 57 °F 52.5 °F 30.1 in Sur 4.3 mph 9.2 mph 85% 0 in
08:04 56.8 °F 52.3 °F 30.1 in Sur 4.3 mph 9.2 mph 85% 0 in
08:09 56.8 °F 52.3 °F 30.1 in Sur 5 mph 9 mph 85% 0 in
08:14 56.8 °F 52.3 °F 30.1 in SSO 5.2 mph 8.1 mph 85% 0 in
08:19 56.8 °F 52.3 °F 30.1 in SO 4.8 mph 8 mph 85% 0 in
08:24 56.8 °F 52.2 °F 30.1 in SO 4.7 mph 7 mph 84.2% 0 in
08:29 57 °F 52.2 °F 30.1 in SO 3.4 mph 6 mph 84% 0 in
08:34 57 °F 52.2 °F 30.1 in SO 3.1 mph 6 mph 83.7% 0 in
08:39 57.2 °F 52 °F 30.1 in SO 3.1 mph 5.9 mph 83% 0 in
08:44 57.4 °F 52.2 °F 30.1 in SSO 3.1 mph 6.4 mph 82.6% 0 in
08:49 57.7 °F 52.2 °F 30.1 in SSO 3.5 mph 7 mph 81.8% 0 in
08:54 57.9 °F 52.2 °F 30.1 in SSO 3.6 mph 7 mph 80.9% 0 in
08:59 58.5 °F 52.2 °F 30.1 in SSO 3.6 mph 7 mph 79.8% 0 in
09:04 58.6 °F 52.2 °F 30.1 in SSO 3.6 mph 8.1 mph 78.6% 0 in
09:09 59 °F 52 °F 30.1 in Sur 2.6 mph 8 mph 77.6% 0 in
09:14 59.2 °F 52.2 °F 30.1 in SSO 2.4 mph 7.4 mph 77.5% 0 in
09:19 59.4 °F 52.2 °F 30.1 in Sur 3.4 mph 7 mph 77% 0 in
09:24 59.7 °F 52.5 °F 30.1 in Sur 3.6 mph 8.1 mph 77% 0 in
09:29 60.1 °F 52.5 °F 30.1 in Sur 4.5 mph 8 mph 76.3% 0 in
09:34 60.4 °F 52.7 °F 30.1 in SSE 4.7 mph 7.4 mph 76% 0 in
09:39 60.4 °F 52.9 °F 30.1 in SSO 4.7 mph 7.4 mph 76% 0 in
09:44 60.6 °F 53.1 °F 30.1 in Sur 4.7 mph 8.1 mph 76% 0 in
09:49 61 °F 53.4 °F 30.1 in Sur 4.4 mph 8.1 mph 76% 0 in
09:54 61.3 °F 53.6 °F 30.1 in SSO 4.3 mph 8.5 mph 75.5% 0 in
09:59 61.9 °F 53.6 °F 30.1 in SSO 4.3 mph 9.2 mph 74.3% 0 in
10:04 62.1 °F 53.4 °F 30.1 in SO 4.3 mph 9 mph 73.3% 0 in
10:09 62.1 °F 53.2 °F 30.1 in SO 4.7 mph 8.5 mph 72.6% 0 in
10:14 62.2 °F 52.9 °F 30.1 in SO 4.7 mph 9.2 mph 71.5% 0 in
10:19 62.4 °F 52.9 °F 30.1 in OSO 5.2 mph 9.2 mph 71% 0 in
10:24 62.4 °F 52.9 °F 30.1 in OSO 5.4 mph 9 mph 71% 0 in
10:29 63 °F 53.2 °F 30.1 in NNO 4.6 mph 8.1 mph 70.8% 0 in
10:34 63.5 °F 53.4 °F 30.1 in OSO 4.3 mph 8 mph 69.7% 0 in
10:39 63.9 °F 52.9 °F 30.1 in OSO 3.4 mph 6.9 mph 67.6% 0 in
10:44 64 °F 52.9 °F 30.1 in SO 3.1 mph 7 mph 67% 0 in
10:49 64.6 °F 52.9 °F 30.1 in SSE 3.5 mph 7 mph 66.1% 0 in
10:54 64.9 °F 52.9 °F 30.1 in ESE 3.6 mph 5 mph 65% 0 in
10:59 65.5 °F 52.9 °F 30.1 in OSO 3 mph 5 mph 63.7% 0 in
11:04 65.8 °F 52.9 °F 30.1 in SSE 2.9 mph 5.4 mph 62.8% 0 in
11:09 66.6 °F 52.5 °F 30.1 in NE 2.2 mph 6 mph 61% 0 in
11:14 66.9 °F 52.7 °F 30.1 in ENE 2 mph 6 mph 60.2% 0 in
11:19 67.1 °F 52.3 °F 30.1 in ESE 2.8 mph 6 mph 59.1% 0 in
11:24 67.1 °F 52.2 °F 30.1 in ESE 3.1 mph 6 mph 59% 0 in
11:29 67.5 °F 52.5 °F 30.1 in ESE 2.9 mph 5 mph 58.7% 0 in
11:34 67.8 °F 52.3 °F 30.1 in ESE 2.9 mph 5.9 mph 57.7% 0 in
11:39 67.8 °F 52.3 °F 30.1 in SSO 3 mph 6 mph 57.5% 0 in
11:44 68.2 °F 52.5 °F 30.1 in ENE 3.1 mph 6.2 mph 57.6% 0 in
11:49 68.4 °F 52.5 °F 30.1 in North 3.5 mph 7.4 mph 57.1% 0 in
11:54 68.4 °F 52.3 °F 30.1 in Oeste 3.6 mph 7 mph 56.5% 0 in
11:59 68.5 °F 52 °F 30.1 in ONO 3.2 mph 6.9 mph 55.9% 0 in
12:04 68.7 °F 52.5 °F 30.1 in NO 3.1 mph 7 mph 56.2% 0 in
12:09 69.1 °F 52.5 °F 30.1 in ENE 2.9 mph 10.4 mph 55.4% 0 in
12:14 69.1 °F 52.2 °F 30.1 in NE 2.9 mph 10.4 mph 55% 0 in
12:19 69.1 °F 51.8 °F 30.1 in Este 4.7 mph 11.8 mph 54.1% 0 in
12:24 69.3 °F 51.8 °F 30.1 in ENE 5.2 mph 12 mph 54.1% 0 in
12:29 69.1 °F 51.8 °F 30.1 in ENE 5.2 mph 10 mph 54.2% 0 in
12:34 69.1 °F 51.1 °F 30.1 in NE 5.2 mph 9 mph 52.7% 0 in
12:39 69.3 °F 51.3 °F 30.1 in NNE 4.5 mph 8 mph 52.8% 0 in
12:44 69.3 °F 51.4 °F 30.1 in NO 4.3 mph 7 mph 53% 0 in
12:49 69.4 °F 51.6 °F 30 in NNE 3.8 mph 6 mph 53% 0 in
12:54 70 °F 51.8 °F 30 in ESE 3.6 mph 6.2 mph 52.6% 0 in
12:59 70.3 °F 51.4 °F 30 in ESE 2.7 mph 8.5 mph 51.5% 0 in
13:04 70.5 °F 51.8 °F 30 in NE 2.4 mph 9 mph 51.6% 0 in
13:09 70.5 °F 51.4 °F 30 in NNE 3.7 mph 9.2 mph 51% 0 in
13:14 70.3 °F 51.8 °F 30 in NE 4 mph 9 mph 51.7% 0 in
13:19 70.7 °F 51.8 °F 30 in NE 4.2 mph 7 mph 51.1% 0 in
13:24 71.2 °F 51.4 °F 30 in OSO 4.3 mph 6.2 mph 49.6% 0 in
13:29 71.2 °F 51.4 °F 30 in SO 3.4 mph 6 mph 49.6% 0 in
13:34 71.2 °F 51.1 °F 30 in Sur 3.1 mph 5 mph 49% 0 in
13:39 71.4 °F 51.3 °F 30 in ESE 2.9 mph 6.9 mph 49% 0 in
13:44 71.8 °F 51.4 °F 30 in NNO 2.9 mph 7.4 mph 48.6% 0 in
13:49 72 °F 51.4 °F 30 in NNE 3.7 mph 7 mph 48.5% 0 in
13:54 72 °F 51.1 °F 30 in North 4 mph 10.7 mph 47.7% 0 in
13:59 71.4 °F 50.7 °F 30 in NNE 4.9 mph 11 mph 48% 0 in
14:04 71.4 °F 50.9 °F 30 in NNE 5.2 mph 10.4 mph 48.2% 0 in
14:09 71.4 °F 50.7 °F 30 in NO 5.3 mph 10.4 mph 47.9% 0 in
14:14 71.8 °F 50.7 °F 30 in OSO 5.4 mph 10 mph 47.4% 0 in
14:19 72 °F 51.1 °F 30 in North 4 mph 8.1 mph 47.6% 0 in
14:24 72.5 °F 51.4 °F 30 in North 3.6 mph 8 mph 47.7% 0 in
14:29 72.9 °F 50.9 °F 30 in NE 3 mph 6.2 mph 46.1% 0 in
14:34 72.9 °F 51.1 °F 30 in NE 2.9 mph 6 mph 46.2% 0 in
14:39 73 °F 50.9 °F 30 in ENE 3 mph 9.2 mph 46% 0 in
14:44 73 °F 50.9 °F 30 in NNO 3.1 mph 9 mph 46% 0 in
14:49 73 °F 50.9 °F 30 in OSO 3.7 mph 9.7 mph 45.9% 0 in
14:54 72.9 °F 50.9 °F 30 in NNO 4 mph 9.2 mph 46% 0 in
14:59 72.9 °F 51.1 °F 30 in NNE 5 mph 10.7 mph 46.5% 0 in
15:04 72.9 °F 51.1 °F 30 in NNE 5.4 mph 15.2 mph 46.2% 0 in
15:09 72.9 °F 52.5 °F 30 in NNE 6.5 mph 16.1 mph 48.8% 0 in
15:14 72.9 °F 52.3 °F 30 in NE 6.9 mph 16.1 mph 48.7% 0 in
15:19 72.7 °F 52.7 °F 30 in NE 8 mph 16.1 mph 49.3% 0 in
15:24 72.7 °F 52.9 °F 30 in NE 8.5 mph 16 mph 49.8% 0 in
15:29 72.7 °F 52.9 °F 30 in NE 8.6 mph 20.4 mph 49.9% 0 in
15:34 72.3 °F 52.5 °F 30 in NE 8.7 mph 21 mph 50% 0 in
15:39 72 °F 52.7 °F 30 in NNE 10.6 mph 21 mph 50.8% 0 in
15:44 72 °F 52.9 °F 30 in NE 11.2 mph 21 mph 51% 0 in
15:49 72 °F 52.9 °F 30 in NE 11.2 mph 21 mph 50.9% 0 in
15:54 72 °F 52.7 °F 30 in NNE 11.2 mph 20 mph 50.8% 0 in
15:59 71.8 °F 52.9 °F 30 in NE 9.9 mph 20 mph 51.4% 0 in
16:04 71.8 °F 52.7 °F 30 in NE 9.7 mph 17.3 mph 51.2% 0 in
16:09 71.6 °F 53.1 °F 30 in NNE 9.9 mph 17 mph 52% 0 in
16:14 71.6 °F 53.1 °F 30 in NE 10 mph 16 mph 52% 0 in
16:19 71.4 °F 52.9 °F 30 in NNE 9.4 mph 15.2 mph 52% 0 in
16:24 71.2 °F 52.7 °F 30 in NE 9.2 mph 15.2 mph 52% 0 in
16:29 71.2 °F 52.9 °F 30 in NE 9.6 mph 17.3 mph 52.5% 0 in
16:34 71.1 °F 53.1 °F 30 in NNE 9.7 mph 17 mph 53% 0 in
16:39 71.1 °F 53.1 °F 30 in NNE 9.9 mph 17.3 mph 53% 0 in
16:44 71.1 °F 53.2 °F 30 in NE 10 mph 19.7 mph 53.3% 0 in
16:49 71.1 °F 53.2 °F 30 in NE 10 mph 19.6 mph 53.4% 0 in
16:54 70.9 °F 53.2 °F 30 in NNE 10 mph 20 mph 53.6% 0 in
16:59 70.3 °F 53.2 °F 30 in NNE 10.7 mph 18.4 mph 54.6% 0 in
17:04 70.3 °F 53.4 °F 30 in NE 11.2 mph 17 mph 55% 0 in
17:09 70.3 °F 53.4 °F 30 in NNE 10.7 mph 16.3 mph 55.1% 0 in
17:14 70.3 °F 53.8 °F 30 in NE 10.2 mph 18.5 mph 55.7% 0 in
17:19 70.5 °F 54 °F 30 in ENE 9.3 mph 19 mph 55.6% 0 in
17:24 70.9 °F 54 °F 30 in Este 8.7 mph 15 mph 55.3% 0 in
17:29 71.1 °F 54 °F 30 in ESE 8.1 mph 21.3 mph 55.1% 0 in
17:34 70.2 °F 53.6 °F 30 in ESE 7.6 mph 21 mph 55.7% 0 in
17:39 69.8 °F 53.8 °F 30 in ESE 10.1 mph 21 mph 56.8% 0 in
17:44 69.4 °F 54 °F 30 in Este 12.5 mph 19 mph 57.9% 0 in
17:49 69.4 °F 54.1 °F 30 in ESE 11.2 mph 18.4 mph 57.9% 0 in
17:54 69.6 °F 54.1 °F 30 in ESE 10.2 mph 18 mph 57.8% 0 in
17:59 69.6 °F 54.3 °F 30 in Este 9.3 mph 16 mph 58% 0 in
18:04 70 °F 54.5 °F 30 in Este 8.7 mph 15 mph 58% 0 in
18:09 69.8 °F 54.1 °F 30 in Este 8 mph 13 mph 57.7% 0 in
18:14 69.6 °F 54.1 °F 30 in Este 7.4 mph 15.2 mph 58% 0 in
18:19 69.4 °F 54 °F 30 in Este 7.5 mph 15 mph 58% 0 in
18:24 69.1 °F 53.6 °F 30 in Este 7.6 mph 13 mph 58% 0 in
18:29 69.1 °F 54 °F 30 in Este 7.6 mph 13 mph 58.7% 0 in
18:34 69.1 °F 54 °F 30 in ENE 7.6 mph 13.8 mph 58.7% 0 in
18:39 68.9 °F 54 °F 30 in ENE 7.2 mph 15.2 mph 58.8% 0 in
18:44 68.9 °F 54 °F 30 in Este 6.9 mph 15 mph 59% 0 in
18:49 68.7 °F 54 °F 30 in Este 7.1 mph 14 mph 59% 0 in
18:54 68.9 °F 54 °F 30 in Este 7.4 mph 13 mph 59% 0 in
18:59 68.7 °F 54.1 °F 30 in Este 6.5 mph 11.5 mph 59.6% 0 in
19:04 68.5 °F 54.1 °F 30 in Este 5.9 mph 12 mph 60.1% 0 in
19:09 68.4 °F 54.3 °F 30 in Este 6.2 mph 12 mph 60.7% 0 in
19:14 68.4 °F 54 °F 30 in Este 6.4 mph 11 mph 60.2% 0 in
19:19 68.4 °F 54 °F 29.9 in Este 5.8 mph 9.2 mph 60.3% 0 in
19:24 68.2 °F 54 °F 29.9 in Este 5.4 mph 10 mph 60.3% 0 in
19:29 68.2 °F 54 °F 29.9 in NE 5.4 mph 10.4 mph 60.3% 0 in
19:34 68.4 °F 53.8 °F 29.9 in NE 5.4 mph 10 mph 60% 0 in
19:39 68.2 °F 53.8 °F 29.9 in ENE 5.3 mph 10.7 mph 60% 0 in
19:44 67.8 °F 53.6 °F 29.9 in NE 5.2 mph 12.3 mph 60.5% 0 in
19:49 67.5 °F 53.4 °F 29.9 in NNE 5.8 mph 13 mph 60.4% 0 in
19:54 67.5 °F 53.2 °F 29.9 in NE 6.2 mph 13.8 mph 60.6% 0 in
19:59 67.3 °F 53.1 °F 29.9 in NE 6.6 mph 14 mph 60.6% 0 in
20:00 67.3 °F 52.9 °F 29.9 in NE 7 mph 13 mph 60% 0 in
Murcia-Puente Tocinos, España
Compliments of Weather Underground - 2.75 mb

La estación de MeteoMurcia.com, publica sus datos en los siguientes proyectos:

Weather Underground PWS IMURCIAP2 Meteoclimatic www.awekas.at

W3Counter
Web Analytics